createdAt,value
2019-05-28T00:00:16.550Z,8.60
2019-05-28T00:01:15.629Z,9.20
2019-05-28T00:02:15.555Z,11.00
2019-05-28T00:03:15.541Z,8.60
2019-05-28T00:04:15.498Z,8.50
2019-05-28T00:05:15.556Z,11.90
2019-05-28T00:06:15.485Z,10.20
2019-05-28T00:07:15.586Z,9.40
2019-05-28T00:08:15.491Z,9.00
2019-05-28T00:09:15.491Z,9.00
2019-05-28T00:10:15.448Z,12.30
2019-05-28T00:11:15.496Z,10.20
2019-05-28T00:12:15.422Z,13.90
2019-05-28T00:13:15.540Z,10.20
2019-05-28T00:14:15.383Z,11.00
2019-05-28T00:15:15.425Z,9.60
2019-05-28T00:16:15.361Z,10.00
2019-05-28T00:17:15.438Z,10.00
2019-05-28T00:18:15.374Z,8.60
2019-05-28T00:19:15.451Z,6.80
2019-05-28T00:20:15.320Z,10.00
2019-05-28T00:21:15.369Z,9.80
2019-05-28T00:22:15.330Z,11.20
2019-05-28T00:23:16.431Z,10.00
2019-05-28T00:24:15.272Z,12.90
2019-05-28T00:25:15.383Z,9.70
2019-05-28T00:26:15.256Z,9.00
2019-05-28T00:27:17.359Z,10.80
2019-05-28T00:28:15.265Z,10.60
2019-05-28T00:29:15.322Z,13.80
2019-05-28T00:30:20.582Z,11.80
2019-05-28T00:31:18.293Z,11.40
2019-05-28T00:32:15.194Z,12.10
2019-05-28T00:33:26.025Z,9.00
2019-05-28T00:34:15.163Z,14.90
2019-05-28T00:35:15.251Z,13.20
2019-05-28T00:36:15.144Z,9.60
2019-05-28T00:37:15.160Z,10.70
2019-05-28T00:38:15.170Z,15.20
2019-05-28T00:39:15.176Z,13.10
2019-05-28T00:40:15.099Z,12.60
2019-05-28T00:41:15.209Z,10.70
2019-05-28T00:42:15.083Z,14.30
2019-05-28T00:43:15.113Z,12.80
2019-05-28T00:44:15.115Z,11.50
2019-05-28T00:45:15.122Z,13.50
2019-05-28T00:46:15.034Z,12.30
2019-05-28T00:47:15.136Z,9.20
2019-05-28T00:48:15.032Z,13.60
2019-05-28T00:49:15.121Z,11.80
2019-05-28T00:50:14.991Z,11.80
2019-05-28T00:51:15.064Z,13.50
2019-05-28T00:52:14.968Z,12.80
2019-05-28T00:53:15.079Z,9.10
2019-05-28T00:54:14.984Z,9.90
2019-05-28T00:55:14.997Z,11.80
2019-05-28T00:56:14.927Z,11.90
2019-05-28T00:57:15.007Z,10.40
2019-05-28T00:58:14.898Z,11.20
2019-05-28T00:59:15.045Z,11.80
2019-05-28T01:00:14.909Z,9.40
2019-05-28T01:01:14.935Z,8.70
2019-05-28T01:02:14.855Z,9.60
2019-05-28T01:03:14.950Z,7.50
2019-05-28T01:04:14.860Z,10.70
2019-05-28T01:05:14.855Z,13.60
2019-05-28T01:06:14.817Z,8.80
2019-05-28T01:07:14.861Z,15.80
2019-05-28T01:08:14.792Z,10.10
2019-05-28T01:09:14.911Z,10.60
2019-05-28T01:10:14.793Z,14.40
2019-05-28T01:11:14.796Z,10.70
2019-05-28T01:12:14.748Z,10.30
2019-05-28T01:13:14.817Z,9.00
2019-05-28T01:14:14.751Z,13.80
2019-05-28T01:15:14.890Z,10.80
2019-05-28T01:16:14.709Z,14.00
2019-05-28T01:17:14.733Z,10.50
2019-05-28T01:18:14.679Z,12.30
2019-05-28T01:19:14.747Z,15.30
2019-05-28T01:20:14.702Z,11.70
2019-05-28T01:21:14.758Z,11.80
2019-05-28T01:22:14.641Z,12.60
2019-05-28T01:23:14.673Z,15.60
2019-05-28T01:24:14.657Z,16.40
2019-05-28T01:25:16.738Z,12.30
2019-05-28T01:26:14.588Z,12.30
2019-05-28T01:27:14.706Z,13.90
2019-05-28T01:28:14.587Z,15.90
2019-05-28T01:29:14.609Z,9.70
2019-05-28T01:30:14.581Z,12.20
2019-05-28T01:31:14.630Z,12.10
2019-05-28T01:32:14.529Z,13.90
2019-05-28T01:33:14.634Z,12.80
2019-05-28T01:34:14.508Z,14.20
2019-05-28T01:35:14.587Z,11.50
2019-05-28T01:36:14.506Z,15.10
2019-05-28T01:37:14.568Z,13.60
2019-05-28T01:38:14.475Z,14.80
2019-05-28T01:39:14.482Z,15.70
2019-05-28T01:40:14.477Z,15.30
2019-05-28T01:41:14.524Z,16.10
2019-05-28T01:42:14.414Z,12.20
2019-05-28T01:43:14.506Z,13.70
2019-05-28T01:44:14.390Z,12.70
2019-05-28T01:45:14.421Z,11.80
2019-05-28T01:46:14.415Z,14.50
2019-05-28T01:47:14.431Z,11.10
2019-05-28T01:48:14.366Z,12.50
2019-05-28T01:49:14.444Z,13.10
2019-05-28T01:50:14.328Z,14.60
2019-05-28T01:51:14.389Z,10.00
2019-05-28T01:52:14.305Z,13.60
2019-05-28T01:53:14.379Z,11.80
2019-05-28T01:54:14.271Z,15.00
2019-05-28T01:55:14.395Z,11.40
2019-05-28T01:56:14.280Z,14.70
2019-05-28T01:57:14.300Z,12.70
2019-05-28T01:58:14.240Z,14.70
2019-05-28T01:59:14.328Z,12.80
2019-05-28T02:00:14.218Z,13.30
2019-05-28T02:01:14.349Z,14.40
2019-05-28T02:02:14.195Z,12.50
2019-05-28T02:03:14.340Z,11.00
2019-05-28T02:04:14.176Z,14.20
2019-05-28T02:05:14.246Z,11.80
2019-05-28T02:06:14.170Z,12.90
2019-05-28T02:07:14.157Z,17.30
2019-05-28T02:08:14.122Z,17.60
2019-05-28T02:09:14.179Z,12.10
2019-05-28T02:10:14.103Z,14.70
2019-05-28T02:11:14.210Z,15.00
2019-05-28T02:12:14.081Z,10.10
2019-05-28T02:13:14.098Z,15.00
2019-05-28T02:14:14.061Z,15.30
2019-05-28T02:15:14.110Z,16.90
2019-05-28T02:16:14.090Z,13.40
2019-05-28T02:17:14.153Z,12.10
2019-05-28T02:18:14.024Z,15.50
2019-05-28T02:19:14.037Z,15.60
2019-05-28T02:20:14.002Z,11.70
2019-05-28T02:21:14.088Z,14.50
2019-05-28T02:22:13.963Z,13.60
2019-05-28T02:23:14.059Z,13.50
2019-05-28T02:24:13.951Z,13.00
2019-05-28T02:25:13.979Z,13.10
2019-05-28T02:26:13.925Z,12.60
2019-05-28T02:27:14.038Z,15.80
2019-05-28T02:28:13.910Z,12.80
2019-05-28T02:29:14.013Z,13.90
2019-05-28T02:30:13.900Z,17.10
2019-05-28T02:31:26.878Z,12.80
2019-05-28T02:32:14.887Z,11.70
2019-05-28T02:33:13.926Z,13.80
2019-05-28T02:34:13.830Z,11.40
2019-05-28T02:35:13.951Z,14.60
2019-05-28T02:36:13.839Z,12.70
2019-05-28T02:37:13.912Z,15.60
2019-05-28T02:38:13.796Z,12.70
2019-05-28T02:39:13.892Z,13.30
2019-05-28T02:40:13.771Z,13.00
2019-05-28T02:41:13.787Z,11.30
2019-05-28T02:42:13.778Z,15.10
2019-05-28T02:43:13.796Z,12.90
2019-05-28T02:44:13.717Z,15.40
2019-05-28T02:45:13.806Z,13.10
2019-05-28T02:46:13.697Z,14.80
2019-05-28T02:47:13.747Z,10.10
2019-05-28T02:48:13.703Z,13.10
2019-05-28T02:49:13.735Z,15.40
2019-05-28T02:50:13.658Z,12.80
2019-05-28T02:51:13.747Z,15.60
2019-05-28T02:52:13.638Z,13.30
2019-05-28T02:53:13.689Z,18.70
2019-05-28T02:54:13.628Z,12.70
2019-05-28T02:55:13.690Z,15.10
2019-05-28T02:56:13.590Z,14.60
2019-05-28T02:57:13.692Z,13.90
2019-05-28T02:58:13.618Z,14.90
2019-05-28T02:59:13.647Z,14.60
2019-05-28T03:00:13.547Z,13.80
2019-05-28T03:01:13.615Z,15.60
2019-05-28T03:02:13.534Z,13.30
2019-05-28T03:03:13.663Z,10.40
2019-05-28T03:04:13.497Z,13.70
2019-05-28T03:05:13.546Z,14.40
2019-05-28T03:06:13.480Z,13.80
2019-05-28T03:07:13.553Z,14.40
2019-05-28T03:08:13.509Z,15.90
2019-05-28T03:09:13.585Z,14.80
2019-05-28T03:10:13.438Z,13.50
2019-05-28T03:11:13.492Z,17.40
2019-05-28T03:12:13.443Z,16.60
2019-05-28T03:13:13.527Z,17.80
2019-05-28T03:14:13.399Z,17.20
2019-05-28T03:15:13.429Z,17.20
2019-05-28T03:16:13.370Z,15.00
2019-05-28T03:17:13.423Z,15.50
2019-05-28T03:18:13.386Z,14.10
2019-05-28T03:19:13.473Z,13.20
2019-05-28T03:20:13.323Z,17.20
2019-05-28T03:22:14.429Z,16.10
2019-05-28T03:23:13.364Z,13.80
2019-05-28T03:24:13.313Z,15.50
2019-05-28T03:25:13.377Z,15.20
2019-05-28T03:26:13.255Z,17.20
2019-05-28T03:27:13.282Z,16.60
2019-05-28T03:28:13.267Z,15.50
2019-05-28T03:29:13.293Z,16.20
2019-05-28T03:30:13.215Z,14.10
2019-05-28T03:31:13.327Z,14.80
2019-05-28T03:32:13.195Z,14.20
2019-05-28T03:33:13.229Z,20.60
2019-05-28T03:34:13.195Z,15.20
2019-05-28T03:35:13.236Z,16.20
2019-05-28T03:36:13.180Z,17.90
2019-05-28T03:37:13.259Z,18.70
2019-05-28T03:38:13.140Z,21.00
2019-05-28T03:39:13.204Z,17.90
2019-05-28T03:40:13.108Z,18.10
2019-05-28T03:41:13.189Z,21.70
2019-05-28T03:42:13.072Z,16.90
2019-05-28T03:43:13.193Z,16.70
2019-05-28T03:44:13.118Z,28.80
2019-05-28T03:45:13.107Z,15.00
2019-05-28T03:46:13.029Z,13.90
2019-05-28T03:47:13.121Z,15.20
2019-05-28T03:48:13.014Z,16.60
2019-05-28T03:49:13.031Z,19.60
2019-05-28T03:50:13.006Z,15.70
2019-05-28T03:51:13.053Z,16.70
2019-05-28T03:52:12.968Z,17.20
2019-05-28T03:53:13.051Z,15.10
2019-05-28T03:54:12.971Z,14.70
2019-05-28T03:55:12.983Z,16.70
2019-05-28T03:56:12.923Z,14.60
2019-05-28T03:57:12.978Z,16.90
2019-05-28T03:58:12.908Z,18.50
2019-05-28T03:59:13.003Z,17.10
2019-05-28T04:00:12.952Z,16.40
2019-05-28T04:01:12.907Z,16.30
2019-05-28T04:02:23.069Z,17.30
2019-05-28T04:03:13.858Z,15.10
2019-05-28T04:04:12.926Z,16.00
2019-05-28T04:05:12.847Z,16.30
2019-05-28T04:06:12.876Z,15.10
2019-05-28T04:07:12.802Z,15.10
2019-05-28T04:08:12.882Z,14.50
2019-05-28T04:09:12.785Z,12.60
2019-05-28T04:10:12.901Z,13.50
2019-05-28T04:11:12.754Z,16.40
2019-05-28T04:12:12.786Z,18.20
2019-05-28T04:13:12.732Z,12.80
2019-05-28T04:14:12.881Z,16.30
2019-05-28T04:15:12.764Z,16.50
2019-05-28T04:16:33.807Z,16.80
2019-05-28T04:17:12.713Z,17.30
2019-05-28T04:19:12.737Z,15.90
2019-05-28T04:20:12.777Z,16.00
2019-05-28T04:21:12.654Z,19.10
2019-05-28T04:22:12.761Z,14.00
2019-05-28T04:23:12.620Z,17.90
2019-05-28T04:24:12.659Z,14.30
2019-05-28T04:25:12.634Z,17.00
2019-05-28T04:26:12.674Z,18.20
2019-05-28T04:27:12.582Z,18.50
2019-05-28T04:28:12.687Z,18.60
2019-05-28T04:29:12.559Z,14.40
2019-05-28T04:30:12.640Z,15.70
2019-05-28T04:31:12.547Z,16.10
2019-05-28T04:32:12.610Z,18.00
2019-05-28T04:33:12.566Z,16.50
2019-05-28T04:34:12.554Z,15.80
2019-05-28T04:35:12.518Z,15.60
2019-05-28T04:36:12.538Z,16.60
2019-05-28T04:37:12.479Z,13.00
2019-05-28T04:39:13.591Z,17.30
2019-05-28T04:40:12.504Z,15.50
2019-05-28T04:41:12.417Z,16.50
2019-05-28T04:42:12.476Z,18.40
2019-05-28T04:43:12.394Z,18.20
2019-05-28T04:44:12.493Z,12.70
2019-05-28T04:45:12.421Z,16.80
2019-05-28T04:46:12.409Z,17.90
2019-05-28T04:47:12.361Z,19.70
2019-05-28T04:48:12.414Z,17.00
2019-05-28T04:49:12.359Z,17.40
2019-05-28T04:50:12.433Z,20.20
2019-05-28T04:51:12.336Z,17.00
2019-05-28T04:52:12.340Z,18.00
2019-05-28T04:53:12.298Z,19.80
2019-05-28T04:54:12.360Z,20.00
2019-05-28T04:55:12.267Z,16.90
2019-05-28T04:56:12.399Z,18.80
2019-05-28T04:57:12.240Z,18.50
2019-05-28T04:58:12.290Z,16.90
2019-05-28T04:59:12.219Z,19.40
2019-05-28T05:00:12.294Z,20.90
2019-05-28T05:01:12.228Z,21.40
2019-05-28T05:02:12.309Z,20.60
2019-05-28T05:03:12.173Z,22.70
2019-05-28T05:04:12.227Z,16.50
2019-05-28T05:05:12.223Z,19.40
2019-05-28T05:06:12.265Z,21.10
2019-05-28T05:07:12.126Z,23.30
2019-05-28T05:08:12.246Z,22.40
2019-05-28T05:09:12.125Z,21.60
2019-05-28T05:10:12.161Z,23.30
2019-05-28T05:11:12.110Z,20.90
2019-05-28T05:12:12.202Z,18.60
2019-05-28T05:13:12.066Z,20.30
2019-05-28T05:14:12.216Z,23.20
2019-05-28T05:15:12.046Z,20.80
2019-05-28T05:16:12.128Z,18.80
2019-05-28T05:17:12.038Z,22.00
2019-05-28T05:18:12.107Z,23.80
2019-05-28T05:19:12.005Z,22.80
2019-05-28T05:20:12.032Z,23.20
2019-05-28T05:21:12.000Z,21.90
2019-05-28T05:22:12.086Z,21.30
2019-05-28T05:23:11.957Z,23.90
2019-05-28T05:24:12.048Z,21.00
2019-05-28T05:25:11.937Z,21.10
2019-05-28T05:26:11.958Z,18.90
2019-05-28T05:27:11.943Z,18.90
2019-05-28T05:28:11.974Z,26.20
2019-05-28T05:29:11.895Z,21.70
2019-05-28T05:30:12.079Z,21.80
2019-05-28T05:31:11.870Z,26.00
2019-05-28T05:32:11.931Z,25.20
2019-05-28T05:33:19.950Z,20.20
2019-05-28T05:34:12.828Z,22.70
2019-05-28T05:35:11.932Z,21.40
2019-05-28T05:36:11.814Z,20.90
2019-05-28T05:37:11.870Z,16.80
2019-05-28T05:38:11.782Z,27.30
2019-05-28T05:39:11.843Z,25.60
2019-05-28T05:40:11.778Z,21.00
2019-05-28T05:41:11.858Z,23.20
2019-05-28T05:42:11.768Z,25.50
2019-05-28T05:43:12.832Z,21.50
2019-05-28T05:44:11.733Z,19.00
2019-05-28T05:45:11.781Z,23.00
2019-05-28T05:46:11.726Z,20.10
2019-05-28T05:47:11.828Z,23.00
2019-05-28T05:48:11.672Z,19.80
2019-05-28T05:49:11.739Z,25.40
2019-05-28T05:50:11.656Z,20.60
2019-05-28T05:51:11.723Z,19.90
2019-05-28T05:52:11.685Z,24.40
2019-05-28T05:53:11.768Z,18.40
2019-05-28T05:54:11.605Z,24.50
2019-05-28T05:55:11.672Z,22.40
2019-05-28T05:56:11.592Z,19.60
2019-05-28T05:57:11.699Z,21.20
2019-05-28T05:58:11.592Z,23.10
2019-05-28T05:59:11.580Z,17.20
2019-05-28T06:00:11.892Z,21.10
2019-05-28T06:01:11.597Z,23.50
2019-05-28T06:02:11.524Z,21.10
2019-05-28T06:03:11.643Z,22.10
2019-05-28T06:04:11.495Z,21.20
2019-05-28T06:05:11.512Z,21.20
2019-05-28T06:06:11.491Z,20.90
2019-05-28T06:07:11.531Z,24.80
2019-05-28T06:08:11.480Z,27.10
2019-05-28T06:09:11.542Z,22.70
2019-05-28T06:10:11.439Z,23.90
2019-05-28T06:11:11.451Z,26.90
2019-05-28T06:12:11.419Z,21.00
2019-05-28T06:13:11.502Z,22.20
2019-05-28T06:14:11.389Z,20.60
2019-05-28T06:15:11.487Z,21.40
2019-05-28T06:16:11.366Z,20.00
2019-05-28T06:17:11.397Z,21.00
2019-05-28T06:18:11.430Z,22.10
2019-05-28T06:19:11.409Z,24.80
2019-05-28T06:20:11.320Z,19.70
2019-05-28T06:21:16.161Z,22.10
2019-05-28T06:22:12.298Z,19.70
2019-05-28T06:23:11.369Z,22.80
2019-05-28T06:24:11.289Z,23.40
2019-05-28T06:25:11.355Z,19.70
2019-05-28T06:26:11.251Z,18.80
2019-05-28T06:27:11.359Z,19.00
2019-05-28T06:28:11.265Z,21.00
2019-05-28T06:29:11.273Z,19.50
2019-05-28T06:30:11.214Z,18.30
2019-05-28T06:31:11.317Z,18.00
2019-05-28T06:32:11.192Z,20.80
2019-05-28T06:33:11.303Z,21.60
2019-05-28T06:34:11.191Z,19.20
2019-05-28T06:35:11.210Z,21.00
2019-05-28T06:36:11.201Z,18.50
2019-05-28T06:37:11.245Z,19.40
2019-05-28T06:38:11.127Z,18.30
2019-05-28T06:39:11.186Z,21.30
2019-05-28T06:40:11.103Z,17.60
2019-05-28T06:41:11.195Z,20.50
2019-05-28T06:42:11.092Z,19.80
2019-05-28T06:43:11.164Z,17.40
2019-05-28T06:44:11.096Z,19.30
2019-05-28T06:46:12.153Z,16.70
2019-05-28T06:47:11.096Z,16.60
2019-05-28T06:48:11.053Z,17.70
2019-05-28T06:49:11.141Z,18.90
2019-05-28T06:50:12.212Z,16.70
2019-05-28T06:51:11.021Z,16.30
2019-05-28T06:52:10.964Z,17.00
2019-05-28T06:53:11.034Z,19.00
2019-05-28T06:54:11.916Z,17.30
2019-05-28T06:55:11.053Z,20.70
2019-05-28T06:56:10.917Z,17.70
2019-05-28T06:57:22.502Z,18.70
2019-05-28T06:58:11.897Z,19.20
2019-05-28T06:59:10.999Z,18.90
2019-05-28T07:00:10.894Z,17.50
2019-05-28T07:01:10.990Z,16.70
2019-05-28T07:02:10.888Z,14.50
2019-05-28T07:03:10.895Z,19.90
2019-05-28T07:05:13.022Z,14.80
2019-05-28T07:06:10.976Z,17.60
2019-05-28T07:07:11.053Z,14.10
2019-05-28T07:08:10.944Z,19.80
2019-05-28T07:09:11.169Z,18.90
2019-05-28T07:10:10.988Z,19.30
2019-05-28T07:11:11.162Z,14.40
2019-05-28T07:12:10.762Z,17.30
2019-05-28T07:13:11.194Z,18.40
2019-05-28T07:14:10.729Z,22.20
2019-05-28T07:15:11.339Z,18.30
2019-05-28T07:16:10.710Z,19.60
2019-05-28T07:17:11.312Z,22.70
2019-05-28T07:18:10.707Z,19.20
2019-05-28T07:20:11.833Z,18.30
2019-05-28T07:22:11.751Z,18.00
2019-05-28T07:24:11.742Z,17.90
2019-05-28T07:25:11.699Z,17.70
2019-05-28T07:26:10.590Z,16.80
2019-05-28T07:28:12.034Z,20.10
2019-05-28T07:30:11.717Z,17.40
2019-05-28T07:32:11.662Z,20.70
2019-05-28T07:34:11.636Z,18.30
2019-05-28T07:35:12.183Z,18.20
2019-05-28T07:36:10.473Z,15.80
2019-05-28T07:38:11.599Z,17.90
2019-05-28T07:40:11.610Z,20.00
2019-05-28T07:41:13.388Z,14.30
2019-05-28T07:42:10.506Z,15.70
2019-05-28T07:43:12.620Z,19.70
2019-05-28T07:44:10.403Z,15.90
2019-05-28T07:45:12.566Z,16.00
2019-05-28T07:46:10.396Z,17.80
2019-05-28T07:47:12.649Z,13.60
2019-05-28T07:48:10.343Z,13.20
2019-05-28T07:49:12.799Z,12.30
2019-05-28T07:50:10.365Z,12.20
2019-05-28T07:51:12.912Z,10.80
2019-05-28T07:52:10.342Z,13.20
2019-05-28T07:54:11.451Z,12.50
2019-05-28T07:56:11.470Z,12.40
2019-05-28T07:58:11.402Z,15.80
2019-05-28T08:00:11.360Z,17.40
2019-05-28T08:01:13.438Z,17.10
2019-05-28T08:02:10.196Z,14.60
2019-05-28T08:04:11.339Z,20.00
2019-05-28T08:06:11.330Z,17.40
2019-05-28T08:08:11.271Z,14.20
2019-05-28T08:10:11.253Z,13.70
2019-05-28T08:11:13.784Z,14.70
2019-05-28T08:12:10.103Z,17.20
2019-05-28T08:14:11.212Z,16.20
2019-05-28T08:16:18.365Z,18.90
2019-05-28T08:17:11.035Z,20.00
2019-05-28T08:19:10.033Z,19.50
2019-05-28T08:22:13.608Z,18.80
2019-05-28T08:24:09.972Z,15.60
2019-05-28T08:25:27.509Z,17.20
2019-05-28T08:26:14.447Z,21.50
2019-05-28T08:27:09.943Z,15.80
2019-05-28T08:29:11.054Z,16.50
2019-05-28T08:30:09.978Z,15.70
2019-05-28T08:31:15.327Z,18.10
2019-05-28T08:32:14.708Z,16.50
2019-05-28T08:33:10.041Z,18.70
2019-05-28T08:34:09.906Z,17.10
2019-05-28T08:35:09.834Z,16.80
2019-05-28T08:36:09.914Z,17.70
2019-05-28T08:37:09.853Z,19.80
2019-05-28T08:38:09.927Z,14.40
2019-05-28T08:39:09.792Z,18.10
2019-05-28T08:40:09.836Z,19.30
2019-05-28T08:41:09.772Z,17.80
2019-05-28T08:42:09.874Z,16.80
2019-05-28T08:43:09.760Z,17.70
2019-05-28T08:44:09.775Z,18.30
2019-05-28T08:45:09.724Z,18.10
2019-05-28T08:46:09.777Z,17.80
2019-05-28T08:47:09.732Z,16.70
2019-05-28T08:48:09.790Z,17.90
2019-05-28T08:49:09.680Z,17.60
2019-05-28T08:51:10.842Z,22.10
2019-05-28T08:52:10.771Z,19.30
2019-05-28T08:53:09.657Z,19.30
2019-05-28T08:54:09.737Z,19.40
2019-05-28T08:55:09.626Z,19.30
2019-05-28T08:56:09.646Z,16.80
2019-05-28T08:57:09.633Z,24.30
2019-05-28T08:58:09.703Z,17.90
2019-05-28T08:59:09.576Z,17.00
2019-05-28T09:00:09.699Z,16.10
2019-05-28T09:01:09.572Z,16.40
2019-05-28T09:02:26.488Z,16.40
2019-05-28T09:03:10.558Z,18.40
2019-05-28T09:04:09.607Z,14.60
2019-05-28T09:05:25.125Z,15.70
2019-05-28T09:06:10.491Z,18.70
2019-05-28T09:07:09.520Z,16.20
2019-05-28T09:08:09.520Z,18.40
2019-05-28T09:09:09.540Z,19.40
2019-05-28T09:10:09.457Z,14.90
2019-05-28T09:11:09.633Z,17.80
2019-05-28T09:12:09.758Z,20.90
2019-05-28T09:13:09.516Z,19.30
2019-05-28T09:14:09.419Z,18.60
2019-05-28T09:16:10.525Z,17.40
2019-05-28T09:17:09.488Z,17.90
2019-05-28T09:18:09.415Z,19.20
2019-05-28T09:19:10.533Z,18.50
2019-05-28T09:20:09.401Z,16.50
2019-05-28T09:22:24.735Z,18.10
2019-05-28T09:23:10.336Z,19.90
2019-05-28T09:24:09.434Z,20.80
2019-05-28T09:25:09.298Z,23.20
2019-05-28T09:26:09.366Z,19.60
2019-05-28T09:27:09.267Z,18.00
2019-05-28T09:28:27.514Z,18.60
2019-05-28T09:29:10.244Z,23.00
2019-05-28T09:30:09.269Z,19.70
2019-05-28T09:31:09.222Z,22.10
2019-05-28T09:32:09.291Z,23.60
2019-05-28T09:33:09.237Z,23.10
2019-05-28T09:34:09.325Z,22.10
2019-05-28T09:35:09.192Z,23.70
2019-05-28T09:36:09.577Z,19.00
2019-05-28T09:37:09.173Z,21.70
2019-05-28T09:38:09.228Z,20.60
2019-05-28T09:39:09.167Z,21.10
2019-05-28T09:40:09.235Z,21.00
2019-05-28T09:41:09.120Z,20.40
2019-05-28T09:42:09.148Z,22.60
2019-05-28T09:43:09.095Z,20.40
2019-05-28T09:44:09.206Z,19.40
2019-05-28T09:45:22.059Z,18.70
2019-05-28T09:46:10.071Z,18.20
2019-05-28T09:47:09.077Z,19.30
2019-05-28T09:48:09.038Z,18.60
2019-05-28T09:49:09.127Z,21.40
2019-05-28T09:50:26.915Z,22.00
2019-05-28T09:51:10.014Z,21.90
2019-05-28T09:52:09.116Z,16.80
2019-05-28T09:53:08.989Z,16.20
2019-05-28T09:54:09.051Z,18.10
2019-05-28T09:55:08.969Z,18.80
2019-05-28T09:56:09.042Z,18.60
2019-05-28T09:57:08.939Z,18.50
2019-05-28T09:58:09.050Z,16.30
2019-05-28T09:59:08.935Z,14.50
2019-05-28T10:00:08.991Z,18.40
2019-05-28T10:01:08.901Z,16.60
2019-05-28T10:02:08.972Z,15.90
2019-05-28T10:03:08.878Z,15.60
2019-05-28T10:04:08.916Z,19.00
2019-05-28T10:05:08.880Z,14.90
2019-05-28T10:06:16.808Z,16.80
2019-05-28T10:07:09.936Z,18.70
2019-05-28T10:08:08.924Z,16.40
2019-05-28T10:09:08.806Z,18.20
2019-05-28T10:10:08.870Z,18.40
2019-05-28T10:11:08.792Z,19.70
2019-05-28T10:13:09.902Z,17.40
2019-05-28T10:14:08.853Z,16.40
2019-05-28T10:15:08.764Z,16.20
2019-05-28T10:16:08.786Z,13.80
2019-05-28T10:17:08.714Z,12.60
2019-05-28T10:18:08.803Z,13.70
2019-05-28T10:19:08.695Z,12.20
2019-05-28T10:20:08.831Z,13.10
2019-05-28T10:21:18.286Z,11.50
2019-05-28T10:22:09.652Z,11.30
2019-05-28T10:23:08.713Z,13.20
2019-05-28T10:24:08.659Z,14.40
2019-05-28T10:25:08.728Z,14.30
2019-05-28T10:26:08.637Z,14.00
2019-05-28T10:27:08.637Z,10.50
2019-05-28T10:28:08.605Z,10.40
2019-05-28T10:29:08.696Z,7.80
2019-05-28T10:30:08.647Z,8.40
2019-05-28T10:31:08.674Z,10.50
2019-05-28T10:32:08.633Z,11.00
2019-05-28T10:33:08.591Z,9.70
2019-05-28T10:34:08.583Z,10.40
2019-05-28T10:35:09.649Z,9.20
2019-05-28T10:36:08.535Z,12.90
2019-05-28T10:37:08.611Z,9.90
2019-05-28T10:38:14.852Z,10.90
2019-05-28T10:39:09.472Z,10.00
2019-05-28T10:40:08.542Z,9.90
2019-05-28T10:41:08.477Z,8.80
2019-05-28T10:42:08.542Z,8.80
2019-05-28T10:43:08.424Z,11.20
2019-05-28T10:45:09.548Z,9.50
2019-05-28T10:46:08.782Z,14.90
2019-05-28T10:47:08.388Z,9.70
2019-05-28T10:48:10.429Z,9.20
2019-05-28T10:49:08.407Z,9.50
2019-05-28T10:50:08.402Z,8.70
2019-05-28T10:51:08.361Z,8.20
2019-05-28T10:52:08.407Z,11.90
2019-05-28T10:53:08.319Z,9.00
2019-05-28T10:54:08.499Z,8.70
2019-05-28T10:55:08.302Z,8.70
2019-05-28T10:56:08.414Z,7.20
2019-05-28T10:57:08.373Z,9.00
2019-05-28T10:58:08.354Z,8.90
2019-05-28T10:59:08.251Z,7.80
2019-05-28T11:00:08.633Z,7.70
2019-05-28T11:01:09.272Z,8.40
2019-05-28T11:02:09.041Z,6.70
2019-05-28T11:03:10.062Z,6.00
2019-05-28T11:04:08.726Z,8.10
2019-05-28T11:05:08.239Z,7.50
2019-05-28T11:06:12.129Z,9.60
2019-05-28T11:07:08.309Z,7.10
2019-05-28T11:09:10.603Z,7.00
2019-05-28T11:11:09.695Z,9.30
2019-05-28T11:12:10.891Z,9.00
2019-05-28T11:13:08.587Z,9.00
2019-05-28T11:14:08.159Z,8.00
2019-05-28T11:16:10.050Z,8.50
2019-05-28T11:17:09.236Z,11.80
2019-05-28T11:18:10.301Z,12.20
2019-05-28T11:19:08.400Z,12.00
2019-05-28T11:20:08.252Z,12.70
2019-05-28T11:21:09.785Z,11.70
2019-05-28T11:22:09.230Z,8.40
2019-05-28T11:24:09.530Z,10.10
2019-05-28T11:25:08.113Z,9.40
2019-05-28T11:28:08.969Z,8.90
2019-05-28T11:29:07.914Z,11.10
2019-05-28T11:30:07.984Z,10.00
2019-05-28T11:31:07.905Z,10.40
2019-05-28T11:32:08.049Z,9.60
2019-05-28T11:33:07.863Z,9.20
2019-05-28T11:34:07.996Z,10.10
2019-05-28T11:35:07.857Z,9.80
2019-05-28T11:36:07.892Z,8.00
2019-05-28T11:37:09.886Z,7.50
2019-05-28T11:38:07.927Z,7.70
2019-05-28T11:39:07.812Z,11.50
2019-05-28T11:40:07.820Z,9.50
2019-05-28T11:41:07.783Z,9.70
2019-05-28T11:42:08.888Z,9.00
2019-05-28T11:44:08.880Z,8.50
2019-05-28T11:45:08.305Z,12.10
2019-05-28T11:46:07.726Z,9.50
2019-05-28T11:47:07.799Z,9.50
2019-05-28T11:48:07.745Z,9.00
2019-05-28T11:49:07.780Z,9.70
2019-05-28T11:50:07.678Z,9.20
2019-05-28T11:51:07.805Z,9.00
2019-05-28T11:52:07.663Z,7.80
2019-05-28T11:53:09.784Z,7.60
2019-05-28T11:54:07.630Z,7.90
2019-05-28T11:55:07.716Z,6.00
2019-05-28T11:56:07.616Z,6.50
2019-05-28T11:57:07.625Z,8.40
2019-05-28T11:58:07.627Z,7.10
2019-05-28T12:00:08.708Z,9.50
2019-05-28T12:01:07.661Z,10.90
2019-05-28T12:02:07.543Z,9.00
2019-05-28T12:03:07.802Z,10.40
2019-05-28T12:04:07.566Z,10.10
2019-05-28T12:05:07.578Z,10.40
2019-05-28T12:06:07.504Z,10.20
2019-05-28T12:07:07.604Z,11.10
2019-05-28T12:08:07.507Z,12.90
2019-05-28T12:09:07.507Z,13.10
2019-05-28T12:10:07.455Z,13.80
2019-05-28T12:11:07.518Z,14.80
2019-05-28T12:12:07.441Z,13.10
2019-05-28T12:13:10.723Z,12.40
2019-05-28T12:14:07.455Z,14.40
2019-05-28T12:15:07.452Z,11.40
2019-05-28T12:16:07.385Z,14.00
2019-05-28T12:17:07.460Z,12.80
2019-05-28T12:18:07.463Z,12.60
2019-05-28T12:19:07.493Z,13.10
2019-05-28T12:20:07.343Z,14.10
2019-05-28T12:21:07.388Z,13.80
2019-05-28T12:22:07.392Z,13.60
2019-05-28T12:23:11.663Z,12.50
2019-05-28T12:24:07.408Z,13.40
2019-05-28T12:25:07.417Z,12.10
2019-05-28T12:26:07.284Z,10.50
2019-05-28T12:27:07.323Z,12.00
2019-05-28T12:28:07.299Z,11.50
2019-05-28T12:29:07.423Z,9.30
2019-05-28T12:30:07.235Z,12.10
2019-05-28T12:31:07.255Z,11.60
2019-05-28T12:32:08.603Z,10.90
2019-05-28T12:33:07.264Z,9.80
2019-05-28T12:34:07.224Z,10.20
2019-05-28T12:36:08.529Z,8.50
2019-05-28T12:37:07.246Z,10.60
2019-05-28T12:38:07.181Z,9.20
2019-05-28T12:39:07.539Z,8.00
2019-05-28T12:40:07.123Z,9.00
2019-05-28T12:41:07.222Z,7.90
2019-05-28T12:42:07.595Z,7.00
2019-05-28T12:43:07.223Z,8.50
2019-05-28T12:44:07.131Z,8.70
2019-05-28T12:45:09.780Z,8.20
2019-05-28T12:46:07.062Z,8.30
2019-05-28T12:47:07.171Z,9.00
2019-05-28T12:48:12.688Z,8.40
2019-05-28T12:49:08.152Z,8.00
2019-05-28T12:50:18.940Z,8.90
2019-05-28T12:51:08.063Z,9.40
2019-05-28T12:52:07.058Z,7.20
2019-05-28T12:53:06.985Z,7.80
2019-05-28T12:54:07.025Z,6.70
2019-05-28T12:55:06.963Z,7.00
2019-05-28T12:56:06.946Z,5.70
2019-05-28T12:57:06.937Z,4.80
2019-05-28T12:58:07.030Z,4.20
2019-05-28T12:59:06.902Z,4.50
2019-05-28T13:00:06.988Z,4.60
2019-05-28T13:01:06.882Z,4.00
2019-05-28T13:02:06.930Z,3.00
2019-05-28T13:03:06.962Z,4.30
2019-05-28T13:04:06.850Z,4.80
2019-05-28T13:05:06.858Z,5.30
2019-05-28T13:06:06.832Z,6.70
2019-05-28T13:07:06.870Z,6.00
2019-05-28T13:08:09.762Z,6.80
2019-05-28T13:09:06.855Z,6.40
2019-05-28T13:10:06.917Z,7.50
2019-05-28T13:11:06.765Z,9.10
2019-05-28T13:12:06.763Z,8.10
2019-05-28T13:13:06.746Z,7.80
2019-05-28T13:14:06.778Z,10.20
2019-05-28T13:15:06.769Z,8.40
2019-05-28T13:16:06.758Z,7.90
2019-05-28T13:17:06.720Z,8.20
2019-05-28T13:18:06.719Z,9.20
2019-05-28T13:19:06.679Z,9.50
2019-05-28T13:20:06.720Z,10.50
2019-05-28T13:21:06.662Z,11.00
2019-05-28T13:22:06.654Z,11.90
2019-05-28T13:23:06.662Z,13.10
2019-05-28T13:24:06.636Z,12.30
2019-05-28T13:25:06.637Z,13.70
2019-05-28T13:26:06.642Z,12.60
2019-05-28T13:27:17.745Z,14.90
2019-05-28T13:28:07.584Z,14.30
2019-05-28T13:29:06.665Z,15.10
2019-05-28T13:30:06.746Z,14.60
2019-05-28T13:31:06.686Z,14.10
2019-05-28T13:32:08.375Z,13.00
2019-05-28T13:33:06.555Z,12.60
2019-05-28T13:34:06.535Z,14.30
2019-05-28T13:35:06.590Z,14.80
2019-05-28T13:36:06.530Z,14.20
2019-05-28T13:37:06.583Z,14.80
2019-05-28T13:38:23.433Z,13.60
2019-05-28T13:39:07.545Z,15.00